VOZ1327 YMHB-YMML
Flight info
| Callsign | VOZ1327 |
|---|---|
| Flight time | 0h 59m |
| Altitude | 38000 |
| Route | LATUM H111 LT H215 RAZZI |
| Aircraft | B738/M-SDE2E3FGHIRWXY/LB1 |
Departure
| Time | 2026-04-22 05:30 |
|---|---|
| Airport | Hobart International Airport (YMHB) |
Arrival
| Time | 2026-04-22 06:29 |
|---|---|
| Airport | Melbourne Airport (YMML) |
| Time | Latitude | Longitude | Altitude | Speed | Heading |
|---|---|---|---|---|---|
| 2026-04-22 05:01 | -42.83649 | 147.50592 | 21 ft | 0 kts | 225° |
| 2026-04-22 05:21 | -42.83648 | 147.50593 | 21 ft | 2 kts | 225° |
| 2026-04-22 05:21 | -42.83629 | 147.50614 | 23 ft | 4 kts | 204° |
| 2026-04-22 05:21 | -42.83605 | 147.50619 | 22 ft | 4 kts | 158° |
| 2026-04-22 05:21 | -42.83593 | 147.50609 | 22 ft | 1 kts | 135° |
| 2026-04-22 05:24 | -42.83596 | 147.50613 | 21 ft | 2 kts | 135° |
| 2026-04-22 05:24 | -42.83601 | 147.50649 | 21 ft | 7 kts | 74° |
| 2026-04-22 05:25 | -42.83566 | 147.50720 | 21 ft | 8 kts | 70° |
| 2026-04-22 05:25 | -42.83597 | 147.50785 | 21 ft | 13 kts | 136° |
| 2026-04-22 05:25 | -42.83681 | 147.50898 | 21 ft | 19 kts | 135° |
| 2026-04-22 05:25 | -42.83769 | 147.51022 | 22 ft | 18 kts | 134° |
| 2026-04-22 05:26 | -42.83855 | 147.51141 | 23 ft | 17 kts | 122° |
| 2026-04-22 05:26 | -42.83830 | 147.51239 | 23 ft | 12 kts | 43° |
| 2026-04-22 05:26 | -42.83771 | 147.51324 | 22 ft | 13 kts | 56° |
| 2026-04-22 05:26 | -42.83774 | 147.51410 | 21 ft | 9 kts | 132° |
| 2026-04-22 05:27 | -42.83827 | 147.51471 | 22 ft | 13 kts | 136° |
| 2026-04-22 05:27 | -42.83902 | 147.51570 | 22 ft | 17 kts | 136° |
| 2026-04-22 05:27 | -42.84000 | 147.51700 | 22 ft | 23 kts | 136° |
| 2026-04-22 05:27 | -42.84128 | 147.51874 | 23 ft | 30 kts | 134° |
| 2026-04-22 05:28 | -42.84298 | 147.52108 | 23 ft | 39 kts | 135° |
| 2026-04-22 05:28 | -42.84464 | 147.52299 | 21 ft | 27 kts | 161° |
| 2026-04-22 05:28 | -42.84572 | 147.52361 | 21 ft | 12 kts | 130° |
| 2026-04-22 05:28 | -42.84563 | 147.52436 | 22 ft | 7 kts | 31° |
| 2026-04-22 05:29 | -42.84538 | 147.52436 | 21 ft | 1 kts | 331° |
| 2026-04-22 05:29 | -42.84515 | 147.52401 | 22 ft | 0 kts | 314° |
| 2026-04-22 05:29 | -42.84481 | 147.52353 | 24 ft | 29 kts | 314° |
| 2026-04-22 05:30 | -42.84161 | 147.51919 | 22 ft | 98 kts | 314° |
| 2026-04-22 05:30 | -42.83538 | 147.51077 | 40 ft | 150 kts | 319° |
| 2026-04-22 05:30 | -42.82779 | 147.50071 | 628 ft | 154 kts | 319° |
| 2026-04-22 05:30 | -42.82013 | 147.49024 | 1294 ft | 158 kts | 316° |
| 2026-04-22 05:31 | -42.81494 | 147.48319 | 1756 ft | 159 kts | 315° |
| 2026-04-22 05:31 | -42.80355 | 147.46765 | 2130 ft | 192 kts | 314° |
| 2026-04-22 05:31 | -42.79700 | 147.45870 | 2286 ft | 205 kts | 314° |
| 2026-04-22 05:31 | -42.78268 | 147.43905 | 2487 ft | 236 kts | 314° |
| 2026-04-22 05:32 | -42.77081 | 147.42276 | 3031 ft | 244 kts | 313° |
| 2026-04-22 05:32 | -42.76278 | 147.41176 | 3635 ft | 241 kts | 311° |
| 2026-04-22 05:32 | -42.74958 | 147.39839 | 4410 ft | 247 kts | 335° |
| 2026-04-22 05:32 | -42.73205 | 147.39519 | 5026 ft | 262 kts | 353° |
| 2026-04-22 05:33 | -42.71376 | 147.39534 | 5771 ft | 264 kts | 355° |
| 2026-04-22 05:33 | -42.69525 | 147.39566 | 6516 ft | 267 kts | 356° |
| 2026-04-22 05:33 | -42.67661 | 147.39597 | 7170 ft | 270 kts | 356° |
| 2026-04-22 05:33 | -42.65766 | 147.39626 | 7842 ft | 273 kts | 357° |
| 2026-04-22 05:34 | -42.63868 | 147.39650 | 8650 ft | 273 kts | 357° |
| 2026-04-22 05:34 | -42.61958 | 147.39672 | 9386 ft | 277 kts | 357° |
| 2026-04-22 05:34 | -42.60023 | 147.39689 | 10185 ft | 278 kts | 358° |
| 2026-04-22 05:34 | -42.58043 | 147.39704 | 10603 ft | 295 kts | 358° |
| 2026-04-22 05:35 | -42.55912 | 147.39717 | 10791 ft | 317 kts | 358° |
| 2026-04-22 05:35 | -42.53648 | 147.39732 | 11182 ft | 330 kts | 358° |
| 2026-04-22 05:35 | -42.51363 | 147.39750 | 11816 ft | 336 kts | 358° |
| 2026-04-22 05:35 | -42.49010 | 147.39769 | 12487 ft | 340 kts | 358° |
| 2026-04-22 05:36 | -42.46634 | 147.39786 | 13250 ft | 342 kts | 358° |
| 2026-04-22 05:36 | -42.44248 | 147.39804 | 14054 ft | 344 kts | 358° |
| 2026-04-22 05:36 | -42.41847 | 147.39821 | 14753 ft | 347 kts | 358° |
| 2026-04-22 05:36 | -42.39422 | 147.39838 | 15433 ft | 351 kts | 358° |
| 2026-04-22 05:37 | -42.36969 | 147.39855 | 16128 ft | 354 kts | 358° |
| 2026-04-22 05:37 | -42.34495 | 147.39871 | 16799 ft | 358 kts | 358° |
| 2026-04-22 05:37 | -42.31989 | 147.39815 | 17464 ft | 361 kts | 353° |
| 2026-04-22 05:37 | -42.29503 | 147.39300 | 18116 ft | 364 kts | 348° |
| 2026-04-22 05:38 | -42.27002 | 147.38655 | 18757 ft | 367 kts | 347° |
| 2026-04-22 05:38 | -42.24482 | 147.38014 | 19326 ft | 371 kts | 348° |
| 2026-04-22 05:38 | -42.21933 | 147.37384 | 19919 ft | 373 kts | 348° |
| 2026-04-22 05:38 | -42.19368 | 147.36762 | 20524 ft | 376 kts | 348° |
| 2026-04-22 05:39 | -42.16783 | 147.36139 | 21093 ft | 379 kts | 348° |
| 2026-04-22 05:39 | -42.14185 | 147.35517 | 21646 ft | 382 kts | 348° |
| 2026-04-22 05:39 | -42.11556 | 147.34887 | 22185 ft | 385 kts | 348° |
| 2026-04-22 05:39 | -42.08911 | 147.34254 | 22739 ft | 387 kts | 348° |
| 2026-04-22 05:40 | -42.06244 | 147.33615 | 23298 ft | 390 kts | 348° |
| 2026-04-22 05:40 | -42.03561 | 147.32973 | 23692 ft | 395 kts | 348° |
| 2026-04-22 05:40 | -42.00826 | 147.32320 | 24036 ft | 402 kts | 348° |
| 2026-04-22 05:40 | -41.98053 | 147.31657 | 24372 ft | 407 kts | 348° |
| 2026-04-22 05:41 | -41.95244 | 147.30986 | 24701 ft | 412 kts | 348° |
| 2026-04-22 05:41 | -41.92420 | 147.30312 | 25209 ft | 412 kts | 348° |
| 2026-04-22 05:41 | -41.89620 | 147.29644 | 25560 ft | 416 kts | 348° |
| 2026-04-22 05:41 | -41.86756 | 147.28963 | 25958 ft | 419 kts | 348° |
| 2026-04-22 05:42 | -41.83885 | 147.28280 | 26396 ft | 420 kts | 348° |
| 2026-04-22 05:42 | -41.80984 | 147.27590 | 26705 ft | 425 kts | 348° |
| 2026-04-22 05:42 | -41.78064 | 147.26897 | 27072 ft | 428 kts | 348° |
| 2026-04-22 05:42 | -41.75124 | 147.26199 | 27444 ft | 430 kts | 348° |
| 2026-04-22 05:43 | -41.72168 | 147.25498 | 27808 ft | 433 kts | 348° |
| 2026-04-22 05:43 | -41.69192 | 147.24793 | 28175 ft | 435 kts | 348° |
| 2026-04-22 05:43 | -41.66205 | 147.24087 | 28528 ft | 437 kts | 348° |
| 2026-04-22 05:43 | -41.63201 | 147.23377 | 28852 ft | 440 kts | 348° |
| 2026-04-22 05:44 | -41.60180 | 147.22663 | 29181 ft | 442 kts | 348° |
| 2026-04-22 05:44 | -41.57145 | 147.21947 | 29517 ft | 444 kts | 348° |
| 2026-04-22 05:44 | -41.54113 | 147.21107 | 29843 ft | 445 kts | 342° |
| 2026-04-22 05:44 | -41.51206 | 147.19733 | 30139 ft | 445 kts | 336° |
| 2026-04-22 05:45 | -41.48327 | 147.18156 | 30425 ft | 447 kts | 335° |
| 2026-04-22 05:45 | -41.45449 | 147.16548 | 30684 ft | 449 kts | 335° |
| 2026-04-22 05:45 | -41.42565 | 147.14938 | 31014 ft | 449 kts | 335° |
| 2026-04-22 05:45 | -41.39730 | 147.13368 | 31400 ft | 447 kts | 335° |
| 2026-04-22 05:46 | -41.36859 | 147.11792 | 31767 ft | 446 kts | 336° |
| 2026-04-22 05:46 | -41.33993 | 147.10231 | 32119 ft | 445 kts | 336° |
| 2026-04-22 05:46 | -41.31127 | 147.08677 | 32465 ft | 444 kts | 336° |
| 2026-04-22 05:46 | -41.28267 | 147.07131 | 32799 ft | 444 kts | 336° |
| 2026-04-22 05:47 | -41.25412 | 147.05591 | 33127 ft | 443 kts | 336° |
| 2026-04-22 05:47 | -41.22556 | 147.04052 | 33471 ft | 442 kts | 336° |
| 2026-04-22 05:47 | -41.19710 | 147.02520 | 33825 ft | 441 kts | 336° |
| 2026-04-22 05:47 | -41.16868 | 147.00991 | 34142 ft | 441 kts | 336° |
| 2026-04-22 05:48 | -41.14025 | 146.99463 | 34430 ft | 440 kts | 336° |
| 2026-04-22 05:48 | -41.11195 | 146.97943 | 34718 ft | 439 kts | 336° |
| 2026-04-22 05:48 | -41.08364 | 146.96424 | 35031 ft | 437 kts | 336° |
| 2026-04-22 05:48 | -41.05547 | 146.94914 | 35299 ft | 437 kts | 336° |
| 2026-04-22 05:49 | -41.02734 | 146.93407 | 35541 ft | 437 kts | 336° |
| 2026-04-22 05:49 | -40.99919 | 146.91900 | 35825 ft | 435 kts | 336° |
| 2026-04-22 05:49 | -40.97115 | 146.90401 | 36111 ft | 434 kts | 336° |
| 2026-04-22 05:49 | -40.94321 | 146.88908 | 36350 ft | 434 kts | 336° |
| 2026-04-22 05:50 | -40.88674 | 146.85894 | 36353 ft | 439 kts | 336° |
| 2026-04-22 05:50 | -40.83042 | 146.82897 | 36336 ft | 433 kts | 336° |
| 2026-04-22 05:51 | -40.77486 | 146.79945 | 36354 ft | 430 kts | 336° |
| 2026-04-22 05:51 | -40.71942 | 146.77003 | 36345 ft | 429 kts | 336° |
| 2026-04-22 05:52 | -40.66418 | 146.74077 | 36346 ft | 426 kts | 336° |
| 2026-04-22 05:52 | -40.60968 | 146.71196 | 36342 ft | 424 kts | 336° |
| 2026-04-22 05:53 | -40.55510 | 146.68315 | 36343 ft | 422 kts | 336° |
| 2026-04-22 05:53 | -40.50069 | 146.65449 | 36338 ft | 421 kts | 336° |
| 2026-04-22 05:54 | -40.44645 | 146.62596 | 36340 ft | 420 kts | 336° |
| 2026-04-22 05:54 | -40.39198 | 146.59736 | 36334 ft | 421 kts | 336° |
| 2026-04-22 05:55 | -40.33748 | 146.56880 | 36339 ft | 423 kts | 336° |
| 2026-04-22 05:55 | -40.28281 | 146.54019 | 36330 ft | 424 kts | 336° |
| 2026-04-22 05:56 | -40.22789 | 146.51151 | 36333 ft | 425 kts | 336° |
| 2026-04-22 05:56 | -40.17284 | 146.48281 | 36326 ft | 427 kts | 336° |
| 2026-04-22 05:57 | -40.11762 | 146.45407 | 36324 ft | 427 kts | 336° |
| 2026-04-22 05:57 | -40.06230 | 146.42533 | 36320 ft | 428 kts | 336° |
| 2026-04-22 05:58 | -40.00702 | 146.39665 | 36323 ft | 428 kts | 336° |
| 2026-04-22 05:58 | -39.95165 | 146.36808 | 36316 ft | 427 kts | 336° |
| 2026-04-22 05:59 | -39.89642 | 146.33968 | 36316 ft | 427 kts | 336° |
| 2026-04-22 05:59 | -39.84122 | 146.31133 | 36311 ft | 426 kts | 336° |
| 2026-04-22 06:00 | -39.78617 | 146.28309 | 36313 ft | 425 kts | 336° |
| 2026-04-22 06:00 | -39.73124 | 146.25495 | 36321 ft | 424 kts | 336° |
| 2026-04-22 06:01 | -39.67636 | 146.22693 | 36305 ft | 423 kts | 336° |
| 2026-04-22 06:01 | -39.62152 | 146.19909 | 36306 ft | 423 kts | 336° |
| 2026-04-22 06:02 | -39.56679 | 146.17134 | 36302 ft | 422 kts | 336° |
| 2026-04-22 06:02 | -39.51210 | 146.14364 | 36301 ft | 422 kts | 336° |
| 2026-04-22 06:03 | -39.45740 | 146.11596 | 36228 ft | 423 kts | 336° |
| 2026-04-22 06:03 | -39.42974 | 146.10198 | 35700 ft | 428 kts | 337° |
| 2026-04-22 06:03 | -39.40237 | 146.08818 | 35100 ft | 427 kts | 336° |
| 2026-04-22 06:04 | -39.37474 | 146.07423 | 34567 ft | 425 kts | 337° |
| 2026-04-22 06:04 | -39.34728 | 146.06035 | 34091 ft | 422 kts | 337° |
| 2026-04-22 06:04 | -39.32004 | 146.04659 | 33566 ft | 418 kts | 336° |
| 2026-04-22 06:04 | -39.29309 | 146.03298 | 33100 ft | 415 kts | 336° |
| 2026-04-22 06:05 | -39.26632 | 146.01947 | 32639 ft | 411 kts | 336° |
| 2026-04-22 06:05 | -39.23983 | 146.00612 | 32195 ft | 407 kts | 336° |
| 2026-04-22 06:05 | -39.21358 | 145.99289 | 31757 ft | 404 kts | 336° |
| 2026-04-22 06:05 | -39.18749 | 145.97976 | 31322 ft | 401 kts | 336° |
| 2026-04-22 06:06 | -39.16164 | 145.96675 | 30897 ft | 398 kts | 336° |
| 2026-04-22 06:06 | -39.13596 | 145.95384 | 30475 ft | 395 kts | 336° |
| 2026-04-22 06:06 | -39.11042 | 145.94101 | 29987 ft | 393 kts | 336° |
| 2026-04-22 06:06 | -39.08506 | 145.92828 | 29508 ft | 389 kts | 336° |
| 2026-04-22 06:07 | -39.05996 | 145.91569 | 29079 ft | 385 kts | 336° |
| 2026-04-22 06:07 | -39.03508 | 145.90322 | 28634 ft | 382 kts | 337° |
| 2026-04-22 06:07 | -39.01045 | 145.89089 | 28189 ft | 379 kts | 337° |
| 2026-04-22 06:07 | -38.98601 | 145.87866 | 27764 ft | 375 kts | 337° |
| 2026-04-22 06:08 | -38.96173 | 145.86652 | 27328 ft | 373 kts | 337° |
| 2026-04-22 06:08 | -38.93768 | 145.85450 | 26908 ft | 370 kts | 337° |
| 2026-04-22 06:08 | -38.91378 | 145.84256 | 26496 ft | 367 kts | 338° |
| 2026-04-22 06:08 | -38.89002 | 145.83070 | 26084 ft | 365 kts | 338° |
| 2026-04-22 06:09 | -38.86640 | 145.81893 | 25665 ft | 363 kts | 338° |
| 2026-04-22 06:09 | -38.84295 | 145.80724 | 25260 ft | 361 kts | 338° |
| 2026-04-22 06:09 | -38.81960 | 145.79562 | 24851 ft | 359 kts | 338° |
| 2026-04-22 06:09 | -38.79634 | 145.78404 | 24444 ft | 358 kts | 338° |
| 2026-04-22 06:10 | -38.77318 | 145.77253 | 24038 ft | 357 kts | 338° |
| 2026-04-22 06:10 | -38.75006 | 145.76104 | 23567 ft | 355 kts | 339° |
| 2026-04-22 06:10 | -38.72709 | 145.74964 | 23117 ft | 353 kts | 338° |
| 2026-04-22 06:10 | -38.70424 | 145.73831 | 22683 ft | 351 kts | 338° |
| 2026-04-22 06:11 | -38.68157 | 145.72707 | 22276 ft | 348 kts | 338° |
| 2026-04-22 06:11 | -38.65906 | 145.71591 | 21870 ft | 346 kts | 338° |
| 2026-04-22 06:11 | -38.63667 | 145.70483 | 21476 ft | 344 kts | 338° |
| 2026-04-22 06:11 | -38.61446 | 145.69384 | 21076 ft | 341 kts | 338° |
| 2026-04-22 06:12 | -38.59236 | 145.68291 | 20680 ft | 340 kts | 338° |
| 2026-04-22 06:12 | -38.57036 | 145.67204 | 20297 ft | 338 kts | 338° |
| 2026-04-22 06:12 | -38.54849 | 145.66123 | 19908 ft | 336 kts | 338° |
| 2026-04-22 06:12 | -38.52669 | 145.65047 | 19519 ft | 335 kts | 338° |
| 2026-04-22 06:13 | -38.50497 | 145.63976 | 19138 ft | 334 kts | 338° |
| 2026-04-22 06:13 | -38.48329 | 145.62908 | 18754 ft | 333 kts | 338° |
| 2026-04-22 06:13 | -38.46200 | 145.61741 | 18262 ft | 334 kts | 332° |
| 2026-04-22 06:13 | -38.44140 | 145.60360 | 17784 ft | 334 kts | 331° |
| 2026-04-22 06:14 | -38.42105 | 145.58942 | 17368 ft | 332 kts | 330° |
| 2026-04-22 06:14 | -38.40083 | 145.57525 | 16972 ft | 330 kts | 330° |
| 2026-04-22 06:14 | -38.38076 | 145.56123 | 16589 ft | 328 kts | 331° |
| 2026-04-22 06:14 | -38.36072 | 145.54730 | 16204 ft | 327 kts | 331° |
| 2026-04-22 06:15 | -38.34084 | 145.53355 | 15820 ft | 325 kts | 331° |
| 2026-04-22 06:15 | -38.32102 | 145.51988 | 15452 ft | 323 kts | 331° |
| 2026-04-22 06:15 | -38.30131 | 145.50633 | 15079 ft | 321 kts | 332° |
| 2026-04-22 06:15 | -38.28171 | 145.49286 | 14709 ft | 320 kts | 332° |
| 2026-04-22 06:16 | -38.26216 | 145.47945 | 14344 ft | 318 kts | 332° |
| 2026-04-22 06:16 | -38.24273 | 145.46613 | 13958 ft | 317 kts | 332° |
| 2026-04-22 06:16 | -38.22335 | 145.45286 | 13557 ft | 315 kts | 332° |
| 2026-04-22 06:16 | -38.20407 | 145.43966 | 13175 ft | 314 kts | 332° |
| 2026-04-22 06:17 | -38.18494 | 145.42657 | 12792 ft | 312 kts | 332° |
| 2026-04-22 06:17 | -38.16599 | 145.41362 | 12422 ft | 310 kts | 333° |
| 2026-04-22 06:17 | -38.14719 | 145.40077 | 12057 ft | 308 kts | 333° |
| 2026-04-22 06:17 | -38.12834 | 145.38790 | 11691 ft | 307 kts | 333° |
| 2026-04-22 06:18 | -38.10955 | 145.37508 | 11328 ft | 306 kts | 333° |
| 2026-04-22 06:18 | -38.09081 | 145.36229 | 10990 ft | 305 kts | 333° |
| 2026-04-22 06:18 | -38.07219 | 145.34959 | 10707 ft | 301 kts | 333° |
| 2026-04-22 06:18 | -38.05402 | 145.33720 | 10542 ft | 293 kts | 333° |
| 2026-04-22 06:19 | -38.03626 | 145.32511 | 10408 ft | 286 kts | 333° |
| 2026-04-22 06:19 | -38.01864 | 145.31313 | 10064 ft | 287 kts | 333° |
| 2026-04-22 06:19 | -38.00103 | 145.30095 | 9678 ft | 288 kts | 332° |
| 2026-04-22 06:19 | -37.98356 | 145.28869 | 9359 ft | 287 kts | 332° |
| 2026-04-22 06:20 | -37.96612 | 145.27644 | 9046 ft | 286 kts | 332° |
| 2026-04-22 06:20 | -37.94875 | 145.26425 | 8737 ft | 285 kts | 332° |
| 2026-04-22 06:20 | -37.93149 | 145.25214 | 8436 ft | 283 kts | 332° |
| 2026-04-22 06:20 | -37.91426 | 145.24008 | 8121 ft | 283 kts | 332° |
| 2026-04-22 06:21 | -37.89706 | 145.22805 | 7819 ft | 281 kts | 331° |
| 2026-04-22 06:21 | -37.87994 | 145.21609 | 7520 ft | 281 kts | 331° |
| 2026-04-22 06:21 | -37.86314 | 145.20436 | 7219 ft | 280 kts | 330° |
| 2026-04-22 06:21 | -37.84829 | 145.18889 | 6899 ft | 278 kts | 305° |
| 2026-04-22 06:22 | -37.84030 | 145.16738 | 6635 ft | 274 kts | 284° |
| 2026-04-22 06:22 | -37.83612 | 145.14391 | 6324 ft | 273 kts | 281° |
| 2026-04-22 06:22 | -37.83228 | 145.12044 | 6015 ft | 272 kts | 281° |
| 2026-04-22 06:22 | -37.82852 | 145.09717 | 5704 ft | 267 kts | 281° |
| 2026-04-22 06:23 | -37.82473 | 145.07459 | 5413 ft | 259 kts | 281° |
| 2026-04-22 06:23 | -37.82097 | 145.05270 | 5136 ft | 251 kts | 282° |
| 2026-04-22 06:23 | -37.81729 | 145.03142 | 4854 ft | 245 kts | 281° |
| 2026-04-22 06:23 | -37.81417 | 145.01056 | 4592 ft | 241 kts | 271° |
| 2026-04-22 06:24 | -37.81916 | 144.97628 | 4179 ft | 238 kts | 257° |
| 2026-04-22 06:24 | -37.82280 | 144.95605 | 3919 ft | 234 kts | 258° |
| 2026-04-22 06:24 | -37.82615 | 144.93644 | 3671 ft | 223 kts | 260° |
| 2026-04-22 06:25 | -37.82934 | 144.91143 | 3329 ft | 206 kts | 262° |
| 2026-04-22 06:25 | -37.83122 | 144.89431 | 3106 ft | 193 kts | 269° |
| 2026-04-22 06:25 | -37.82970 | 144.88331 | 2947 ft | 187 kts | 295° |
| 2026-04-22 06:25 | -37.82107 | 144.87163 | 2771 ft | 185 kts | 332° |
| 2026-04-22 06:26 | -37.80418 | 144.87123 | 2561 ft | 193 kts | 15° |
| 2026-04-22 06:26 | -37.79529 | 144.87292 | 2310 ft | 189 kts | 348° |
| 2026-04-22 06:26 | -37.78393 | 144.86635 | 2304 ft | 178 kts | 332° |
| 2026-04-22 06:26 | -37.77238 | 144.85918 | 2312 ft | 189 kts | 336° |
| 2026-04-22 06:27 | -37.76015 | 144.85280 | 1839 ft | 196 kts | 345° |
| 2026-04-22 06:27 | -37.74687 | 144.85072 | 1326 ft | 189 kts | 358° |
| 2026-04-22 06:27 | -37.73448 | 144.84977 | 1204 ft | 165 kts | 354° |
| 2026-04-22 06:27 | -37.72612 | 144.84818 | 1114 ft | 147 kts | 353° |
| 2026-04-22 06:28 | -37.71664 | 144.84644 | 960 ft | 128 kts | 352° |
| 2026-04-22 06:28 | -37.70781 | 144.84494 | 873 ft | 129 kts | 353° |
| 2026-04-22 06:28 | -37.69895 | 144.84328 | 730 ft | 128 kts | 351° |
| 2026-04-22 06:28 | -37.69008 | 144.84169 | 469 ft | 128 kts | 354° |
| 2026-04-22 06:29 | -37.68174 | 144.84020 | 353 ft | 111 kts | 354° |
| 2026-04-22 06:29 | -37.67576 | 144.83910 | 366 ft | 61 kts | 351° |
| 2026-04-22 06:29 | -37.67292 | 144.83859 | 374 ft | 36 kts | 352° |
| 2026-04-22 06:29 | -37.67070 | 144.83835 | 383 ft | 30 kts | 2° |
| 2026-04-22 06:30 | -37.66910 | 144.83879 | 388 ft | 20 kts | 19° |
| 2026-04-22 06:30 | -37.66816 | 144.83924 | 391 ft | 7 kts | 21° |
| 2026-04-22 06:30 | -37.66801 | 144.83932 | 391 ft | 0 kts | 21° |
| 2026-04-22 06:31 | -37.66782 | 144.83970 | 392 ft | 9 kts | 90° |
| 2026-04-22 06:31 | -37.66822 | 144.84002 | 390 ft | 10 kts | 181° |
| 2026-04-22 06:31 | -37.66937 | 144.84011 | 386 ft | 22 kts | 171° |
| 2026-04-22 06:31 | -37.67052 | 144.84034 | 383 ft | 23 kts | 171° |
| 2026-04-22 06:32 | -37.67185 | 144.84062 | 379 ft | 14 kts | 157° |
| 2026-04-22 06:32 | -37.67217 | 144.84173 | 379 ft | 16 kts | 85° |
| 2026-04-22 06:32 | -37.67207 | 144.84312 | 381 ft | 16 kts | 84° |
| 2026-04-22 06:32 | -37.67202 | 144.84446 | 383 ft | 15 kts | 100° |
| 2026-04-22 06:33 | -37.67209 | 144.84554 | 385 ft | 9 kts | 83° |
| 2026-04-22 06:33 | -37.67176 | 144.84597 | 386 ft | 4 kts | 357° |
| 2026-04-22 06:33 | -37.67149 | 144.84589 | 387 ft | 4 kts | 350° |
| 2026-04-22 06:33 | -37.67134 | 144.84586 | 387 ft | 0 kts | 351° |
| 2026-04-22 06:34 | -37.67133 | 144.84586 | 387 ft | 0 kts | 351° |